sensor_id;sensor_type;location;lat;lon;timestamp;P1;durP1;ratioP1;P2;durP2;ratioP2
10154;SDS011;5118;48.570;7.916;2023-04-28T00:00:04;4.07;;;3.67;;
10154;SDS011;5118;48.570;7.916;2023-04-28T00:02:34;3.90;;;3.53;;
10154;SDS011;5118;48.570;7.916;2023-04-28T00:05:03;5.33;;;3.80;;
10154;SDS011;5118;48.570;7.916;2023-04-28T00:07:33;3.93;;;3.50;;
10154;SDS011;5118;48.570;7.916;2023-04-28T00:10:01;4.57;;;3.57;;
10154;SDS011;5118;48.570;7.916;2023-04-28T00:12:30;4.60;;;3.67;;
10154;SDS011;5118;48.570;7.916;2023-04-28T00:14:59;3.60;;;3.30;;
10154;SDS011;5118;48.570;7.916;2023-04-28T00:17:29;4.60;;;3.40;;
10154;SDS011;5118;48.570;7.916;2023-04-28T00:19:58;3.93;;;3.53;;
10154;SDS011;5118;48.570;7.916;2023-04-28T00:22:26;4.00;;;3.67;;
10154;SDS011;5118;48.570;7.916;2023-04-28T00:24:56;3.90;;;3.60;;
10154;SDS011;5118;48.570;7.916;2023-04-28T00:27:24;4.10;;;3.67;;
10154;SDS011;5118;48.570;7.916;2023-04-28T00:29:52;4.23;;;3.60;;
10154;SDS011;5118;48.570;7.916;2023-04-28T00:32:21;4.03;;;3.67;;
10154;SDS011;5118;48.570;7.916;2023-04-28T00:34:49;3.53;;;3.23;;
10154;SDS011;5118;48.570;7.916;2023-04-28T00:37:19;3.90;;;3.50;;
10154;SDS011;5118;48.570;7.916;2023-04-28T00:39:47;4.00;;;3.70;;
10154;SDS011;5118;48.570;7.916;2023-04-28T00:42:17;5.00;;;4.23;;
10154;SDS011;5118;48.570;7.916;2023-04-28T00:44:45;4.50;;;4.10;;
10154;SDS011;5118;48.570;7.916;2023-04-28T00:47:14;4.90;;;4.20;;
10154;SDS011;5118;48.570;7.916;2023-04-28T00:49:50;4.20;;;3.90;;
10154;SDS011;5118;48.570;7.916;2023-04-28T00:52:19;4.63;;;4.20;;
10154;SDS011;5118;48.570;7.916;2023-04-28T00:54:47;6.97;;;4.47;;
10154;SDS011;5118;48.570;7.916;2023-04-28T00:57:17;4.17;;;3.87;;
10154;SDS011;5118;48.570;7.916;2023-04-28T00:59:47;4.10;;;3.80;;
10154;SDS011;5118;48.570;7.916;2023-04-28T01:02:18;6.10;;;4.40;;
10154;SDS011;5118;48.570;7.916;2023-04-28T01:04:47;4.60;;;4.20;;
10154;SDS011;5118;48.570;7.916;2023-04-28T01:07:18;5.20;;;4.20;;
10154;SDS011;5118;48.570;7.916;2023-04-28T01:09:47;4.60;;;4.20;;
10154;SDS011;5118;48.570;7.916;2023-04-28T01:12:21;4.77;;;4.37;;
10154;SDS011;5118;48.570;7.916;2023-04-28T01:14:52;4.80;;;4.30;;
10154;SDS011;5118;48.570;7.916;2023-04-28T01:17:20;6.23;;;4.63;;
10154;SDS011;5118;48.570;7.916;2023-04-28T01:19:49;6.50;;;4.37;;
10154;SDS011;5118;48.570;7.916;2023-04-28T01:22:18;4.47;;;4.07;;
10154;SDS011;5118;48.570;7.916;2023-04-28T01:24:48;4.70;;;4.30;;
10154;SDS011;5118;48.570;7.916;2023-04-28T01:27:16;4.67;;;4.27;;
10154;SDS011;5118;48.570;7.916;2023-04-28T01:29:44;3.97;;;3.60;;
10154;SDS011;5118;48.570;7.916;2023-04-28T01:32:12;5.33;;;3.50;;
10154;SDS011;5118;48.570;7.916;2023-04-28T01:34:41;3.83;;;3.43;;
10154;SDS011;5118;48.570;7.916;2023-04-28T01:37:09;4.10;;;3.47;;
10154;SDS011;5118;48.570;7.916;2023-04-28T01:39:37;5.87;;;3.90;;
10154;SDS011;5118;48.570;7.916;2023-04-28T01:42:07;3.80;;;3.40;;
10154;SDS011;5118;48.570;7.916;2023-04-28T01:44:35;3.80;;;3.47;;
10154;SDS011;5118;48.570;7.916;2023-04-28T01:47:04;3.70;;;3.40;;
10154;SDS011;5118;48.570;7.916;2023-04-28T01:49:34;3.30;;;3.00;;
10154;SDS011;5118;48.570;7.916;2023-04-28T01:52:02;3.50;;;3.20;;
10154;SDS011;5118;48.570;7.916;2023-04-28T01:54:32;3.73;;;3.43;;
10154;SDS011;5118;48.570;7.916;2023-04-28T01:57:00;4.70;;;3.60;;
10154;SDS011;5118;48.570;7.916;2023-04-28T01:59:31;5.20;;;3.33;;
10154;SDS011;5118;48.570;7.916;2023-04-28T02:02:00;4.03;;;3.53;;
10154;SDS011;5118;48.570;7.916;2023-04-28T02:04:29;4.53;;;3.60;;
10154;SDS011;5118;48.570;7.916;2023-04-28T02:06:57;4.30;;;4.00;;
10154;SDS011;5118;48.570;7.916;2023-04-28T02:09:25;4.30;;;3.90;;
10154;SDS011;5118;48.570;7.916;2023-04-28T02:11:57;4.50;;;4.10;;
10154;SDS011;5118;48.570;7.916;2023-04-28T02:14:25;4.87;;;4.13;;
10154;SDS011;5118;48.570;7.916;2023-04-28T02:16:55;4.63;;;3.90;;
10154;SDS011;5118;48.570;7.916;2023-04-28T02:19:25;4.77;;;4.30;;
10154;SDS011;5118;48.570;7.916;2023-04-28T02:21:53;5.23;;;4.20;;
10154;SDS011;5118;48.570;7.916;2023-04-28T02:24:21;4.67;;;4.17;;
10154;SDS011;5118;48.570;7.916;2023-04-28T02:26:49;4.30;;;3.90;;
10154;SDS011;5118;48.570;7.916;2023-04-28T02:29:18;4.97;;;4.43;;
10154;SDS011;5118;48.570;7.916;2023-04-28T02:31:46;4.63;;;4.23;;
10154;SDS011;5118;48.570;7.916;2023-04-28T02:34:18;4.87;;;4.37;;
10154;SDS011;5118;48.570;7.916;2023-04-28T02:36:47;4.80;;;4.30;;
10154;SDS011;5118;48.570;7.916;2023-04-28T02:39:15;5.03;;;4.57;;
10154;SDS011;5118;48.570;7.916;2023-04-28T02:41:44;7.40;;;4.60;;
10154;SDS011;5118;48.570;7.916;2023-04-28T02:44:12;5.27;;;4.77;;
10154;SDS011;5118;48.570;7.916;2023-04-28T02:46:41;4.90;;;4.50;;
10154;SDS011;5118;48.570;7.916;2023-04-28T02:49:09;5.27;;;4.83;;
10154;SDS011;5118;48.570;7.916;2023-04-28T02:51:39;4.90;;;4.47;;
10154;SDS011;5118;48.570;7.916;2023-04-28T02:54:07;5.53;;;4.53;;
10154;SDS011;5118;48.570;7.916;2023-04-28T02:56:36;5.40;;;4.90;;
10154;SDS011;5118;48.570;7.916;2023-04-28T02:59:08;5.40;;;5.00;;
10154;SDS011;5118;48.570;7.916;2023-04-28T03:01:36;5.30;;;4.80;;
10154;SDS011;5118;48.570;7.916;2023-04-28T03:04:05;6.70;;;4.67;;
10154;SDS011;5118;48.570;7.916;2023-04-28T03:06:33;5.37;;;4.50;;
10154;SDS011;5118;48.570;7.916;2023-04-28T03:09:03;5.10;;;4.60;;
10154;SDS011;5118;48.570;7.916;2023-04-28T03:11:33;4.80;;;4.30;;
10154;SDS011;5118;48.570;7.916;2023-04-28T03:14:02;4.57;;;4.17;;
10154;SDS011;5118;48.570;7.916;2023-04-28T03:16:30;4.50;;;4.10;;
10154;SDS011;5118;48.570;7.916;2023-04-28T03:18:59;4.70;;;4.20;;
10154;SDS011;5118;48.570;7.916;2023-04-28T03:21:27;4.60;;;4.20;;
10154;SDS011;5118;48.570;7.916;2023-04-28T03:23:55;7.07;;;4.53;;
10154;SDS011;5118;48.570;7.916;2023-04-28T03:26:26;5.10;;;4.50;;
10154;SDS011;5118;48.570;7.916;2023-04-28T03:28:54;5.83;;;4.83;;
10154;SDS011;5118;48.570;7.916;2023-04-28T03:31:23;5.47;;;4.33;;
10154;SDS011;5118;48.570;7.916;2023-04-28T03:33:51;4.80;;;4.17;;
10154;SDS011;5118;48.570;7.916;2023-04-28T03:36:20;4.87;;;4.40;;
10154;SDS011;5118;48.570;7.916;2023-04-28T03:38:48;4.60;;;4.20;;
10154;SDS011;5118;48.570;7.916;2023-04-28T03:41:18;6.27;;;4.57;;
10154;SDS011;5118;48.570;7.916;2023-04-28T03:44:13;6.00;;;4.70;;
10154;SDS011;5118;48.570;7.916;2023-04-28T03:46:47;5.17;;;4.67;;
10154;SDS011;5118;48.570;7.916;2023-04-28T03:49:16;5.63;;;4.80;;
10154;SDS011;5118;48.570;7.916;2023-04-28T03:51:44;5.33;;;4.83;;
10154;SDS011;5118;48.570;7.916;2023-04-28T03:54:13;5.10;;;4.70;;
10154;SDS011;5118;48.570;7.916;2023-04-28T03:56:42;5.27;;;4.77;;
10154;SDS011;5118;48.570;7.916;2023-04-28T03:59:11;5.63;;;5.13;;
10154;SDS011;5118;48.570;7.916;2023-04-28T04:01:40;6.30;;;4.90;;
10154;SDS011;5118;48.570;7.916;2023-04-28T04:04:09;5.63;;;5.00;;
10154;SDS011;5118;48.570;7.916;2023-04-28T04:06:38;5.20;;;4.70;;
10154;SDS011;5118;48.570;7.916;2023-04-28T04:09:08;5.77;;;5.10;;
10154;SDS011;5118;48.570;7.916;2023-04-28T04:11:36;6.03;;;5.10;;
10154;SDS011;5118;48.570;7.916;2023-04-28T04:14:05;5.13;;;4.30;;
10154;SDS011;5118;48.570;7.916;2023-04-28T04:16:34;7.73;;;5.20;;
10154;SDS011;5118;48.570;7.916;2023-04-28T04:19:05;6.13;;;5.50;;
10154;SDS011;5118;48.570;7.916;2023-04-28T04:21:40;13.47;;;9.93;;
10154;SDS011;5118;48.570;7.916;2023-04-28T04:24:09;13.97;;;10.80;;
10154;SDS011;5118;48.570;7.916;2023-04-28T04:26:37;12.00;;;8.87;;
10154;SDS011;5118;48.570;7.916;2023-04-28T04:29:22;7.43;;;6.13;;
10154;SDS011;5118;48.570;7.916;2023-04-28T04:31:50;5.60;;;5.10;;
10154;SDS011;5118;48.570;7.916;2023-04-28T04:34:20;5.70;;;5.07;;
10154;SDS011;5118;48.570;7.916;2023-04-28T04:36:50;5.30;;;4.70;;
10154;SDS011;5118;48.570;7.916;2023-04-28T04:39:18;5.50;;;5.00;;
10154;SDS011;5118;48.570;7.916;2023-04-28T04:41:47;5.30;;;4.57;;
10154;SDS011;5118;48.570;7.916;2023-04-28T04:44:33;5.97;;;5.00;;
10154;SDS011;5118;48.570;7.916;2023-04-28T04:47:03;6.37;;;4.80;;
10154;SDS011;5118;48.570;7.916;2023-04-28T04:49:34;7.60;;;5.00;;
10154;SDS011;5118;48.570;7.916;2023-04-28T04:52:02;5.73;;;5.00;;
10154;SDS011;5118;48.570;7.916;2023-04-28T04:54:32;6.30;;;5.70;;
10154;SDS011;5118;48.570;7.916;2023-04-28T04:57:00;6.07;;;5.47;;
10154;SDS011;5118;48.570;7.916;2023-04-28T04:59:52;6.80;;;5.37;;
10154;SDS011;5118;48.570;7.916;2023-04-28T05:02:20;7.93;;;5.83;;
10154;SDS011;5118;48.570;7.916;2023-04-28T05:04:50;8.70;;;5.93;;
10154;SDS011;5118;48.570;7.916;2023-04-28T05:07:30;6.33;;;5.60;;
10154;SDS011;5118;48.570;7.916;2023-04-28T05:09:59;7.00;;;6.40;;
10154;SDS011;5118;48.570;7.916;2023-04-28T05:12:28;7.20;;;6.50;;
10154;SDS011;5118;48.570;7.916;2023-04-28T05:14:57;7.10;;;6.40;;
10154;SDS011;5118;48.570;7.916;2023-04-28T05:17:25;9.03;;;6.30;;
10154;SDS011;5118;48.570;7.916;2023-04-28T05:19:56;6.83;;;6.13;;
10154;SDS011;5118;48.570;7.916;2023-04-28T05:22:24;7.00;;;6.30;;
10154;SDS011;5118;48.570;7.916;2023-04-28T05:24:52;7.37;;;6.50;;
10154;SDS011;5118;48.570;7.916;2023-04-28T05:27:21;6.97;;;6.20;;
10154;SDS011;5118;48.570;7.916;2023-04-28T05:29:50;7.13;;;6.40;;
10154;SDS011;5118;48.570;7.916;2023-04-28T05:32:18;9.87;;;7.87;;
10154;SDS011;5118;48.570;7.916;2023-04-28T05:34:47;7.40;;;6.70;;
10154;SDS011;5118;48.570;7.916;2023-04-28T05:37:17;8.83;;;6.97;;
10154;SDS011;5118;48.570;7.916;2023-04-28T05:39:46;9.43;;;8.60;;
10154;SDS011;5118;48.570;7.916;2023-04-28T05:42:14;10.03;;;9.03;;
10154;SDS011;5118;48.570;7.916;2023-04-28T05:44:43;8.67;;;7.87;;
10154;SDS011;5118;48.570;7.916;2023-04-28T05:47:12;7.27;;;6.60;;
10154;SDS011;5118;48.570;7.916;2023-04-28T05:49:40;7.70;;;6.63;;
10154;SDS011;5118;48.570;7.916;2023-04-28T05:52:10;7.70;;;6.70;;
10154;SDS011;5118;48.570;7.916;2023-04-28T05:54:40;7.70;;;6.30;;
10154;SDS011;5118;48.570;7.916;2023-04-28T05:57:08;8.53;;;7.00;;
10154;SDS011;5118;48.570;7.916;2023-04-28T05:59:37;8.07;;;7.27;;
10154;SDS011;5118;48.570;7.916;2023-04-28T06:02:06;7.03;;;6.33;;
10154;SDS011;5118;48.570;7.916;2023-04-28T06:04:37;7.00;;;6.30;;
10154;SDS011;5118;48.570;7.916;2023-04-28T06:07:06;8.23;;;7.20;;
10154;SDS011;5118;48.570;7.916;2023-04-28T06:09:35;7.47;;;6.60;;
10154;SDS011;5118;48.570;7.916;2023-04-28T06:12:05;7.13;;;5.97;;
10154;SDS011;5118;48.570;7.916;2023-04-28T06:14:34;8.20;;;6.87;;
10154;SDS011;5118;48.570;7.916;2023-04-28T06:17:03;6.40;;;5.80;;
10154;SDS011;5118;48.570;7.916;2023-04-28T06:19:31;6.57;;;5.97;;
10154;SDS011;5118;48.570;7.916;2023-04-28T06:21:59;9.77;;;7.30;;
10154;SDS011;5118;48.570;7.916;2023-04-28T06:24:28;6.80;;;6.10;;
10154;SDS011;5118;48.570;7.916;2023-04-28T06:27:00;8.13;;;6.20;;
10154;SDS011;5118;48.570;7.916;2023-04-28T06:29:29;10.60;;;6.17;;
10154;SDS011;5118;48.570;7.916;2023-04-28T06:31:58;6.90;;;5.97;;
10154;SDS011;5118;48.570;7.916;2023-04-28T06:34:26;6.93;;;6.10;;
10154;SDS011;5118;48.570;7.916;2023-04-28T06:36:57;6.07;;;5.47;;
10154;SDS011;5118;48.570;7.916;2023-04-28T06:39:25;8.07;;;6.20;;
10154;SDS011;5118;48.570;7.916;2023-04-28T06:41:54;6.97;;;5.20;;
10154;SDS011;5118;48.570;7.916;2023-04-28T06:44:25;7.20;;;5.77;;
10154;SDS011;5118;48.570;7.916;2023-04-28T06:46:56;5.87;;;5.27;;
10154;SDS011;5118;48.570;7.916;2023-04-28T06:49:24;8.43;;;5.93;;
10154;SDS011;5118;48.570;7.916;2023-04-28T06:51:58;7.17;;;5.80;;
10154;SDS011;5118;48.570;7.916;2023-04-28T06:54:28;6.27;;;5.23;;
10154;SDS011;5118;48.570;7.916;2023-04-28T06:56:57;7.40;;;5.20;;
10154;SDS011;5118;48.570;7.916;2023-04-28T06:59:26;5.53;;;5.07;;
10154;SDS011;5118;48.570;7.916;2023-04-28T07:01:55;5.70;;;5.20;;
10154;SDS011;5118;48.570;7.916;2023-04-28T07:04:24;5.90;;;5.00;;
10154;SDS011;5118;48.570;7.916;2023-04-28T07:06:52;5.90;;;5.30;;
10154;SDS011;5118;48.570;7.916;2023-04-28T07:09:21;5.40;;;4.90;;
10154;SDS011;5118;48.570;7.916;2023-04-28T07:11:49;5.97;;;5.13;;
10154;SDS011;5118;48.570;7.916;2023-04-28T07:14:18;6.40;;;5.13;;
10154;SDS011;5118;48.570;7.916;2023-04-28T07:16:46;5.93;;;5.43;;
10154;SDS011;5118;48.570;7.916;2023-04-28T07:19:16;7.93;;;6.70;;
10154;SDS011;5118;48.570;7.916;2023-04-28T07:21:44;7.63;;;6.57;;
10154;SDS011;5118;48.570;7.916;2023-04-28T07:24:12;12.00;;;7.10;;
10154;SDS011;5118;48.570;7.916;2023-04-28T07:26:41;8.47;;;7.47;;
10154;SDS011;5118;48.570;7.916;2023-04-28T07:29:10;8.13;;;7.33;;
10154;SDS011;5118;48.570;7.916;2023-04-28T07:31:39;8.40;;;7.57;;
10154;SDS011;5118;48.570;7.916;2023-04-28T07:34:07;12.67;;;8.80;;
10154;SDS011;5118;48.570;7.916;2023-04-28T07:36:37;10.07;;;8.97;;
10154;SDS011;5118;48.570;7.916;2023-04-28T07:39:06;11.77;;;10.53;;
10154;SDS011;5118;48.570;7.916;2023-04-28T07:41:35;10.90;;;9.80;;
10154;SDS011;5118;48.570;7.916;2023-04-28T07:44:04;10.83;;;7.67;;
10154;SDS011;5118;48.570;7.916;2023-04-28T07:46:33;10.87;;;8.97;;
10154;SDS011;5118;48.570;7.916;2023-04-28T07:49:02;9.20;;;8.40;;
10154;SDS011;5118;48.570;7.916;2023-04-28T07:51:31;9.33;;;8.43;;
10154;SDS011;5118;48.570;7.916;2023-04-28T07:54:00;9.23;;;8.00;;
10154;SDS011;5118;48.570;7.916;2023-04-28T07:56:29;9.63;;;8.70;;
10154;SDS011;5118;48.570;7.916;2023-04-28T07:58:57;11.27;;;10.17;;
10154;SDS011;5118;48.570;7.916;2023-04-28T08:01:28;10.10;;;9.00;;
10154;SDS011;5118;48.570;7.916;2023-04-28T08:03:56;8.70;;;7.80;;
10154;SDS011;5118;48.570;7.916;2023-04-28T08:06:25;11.23;;;8.80;;
10154;SDS011;5118;48.570;7.916;2023-04-28T08:08:53;9.93;;;8.93;;
10154;SDS011;5118;48.570;7.916;2023-04-28T08:11:23;9.70;;;8.80;;
10154;SDS011;5118;48.570;7.916;2023-04-28T08:13:51;10.90;;;9.87;;
10154;SDS011;5118;48.570;7.916;2023-04-28T08:16:20;11.73;;;10.73;;
10154;SDS011;5118;48.570;7.916;2023-04-28T08:18:49;10.67;;;9.67;;
10154;SDS011;5118;48.570;7.916;2023-04-28T08:21:17;10.50;;;9.27;;
10154;SDS011;5118;48.570;7.916;2023-04-28T08:23:46;10.80;;;9.80;;
10154;SDS011;5118;48.570;7.916;2023-04-28T08:26:14;11.93;;;9.80;;
10154;SDS011;5118;48.570;7.916;2023-04-28T08:28:44;12.30;;;11.20;;
10154;SDS011;5118;48.570;7.916;2023-04-28T08:31:12;10.60;;;9.67;;
10154;SDS011;5118;48.570;7.916;2023-04-28T08:33:41;10.00;;;8.97;;
10154;SDS011;5118;48.570;7.916;2023-04-28T08:36:14;8.97;;;8.07;;
10154;SDS011;5118;48.570;7.916;2023-04-28T08:38:43;10.07;;;9.07;;
10154;SDS011;5118;48.570;7.916;2023-04-28T08:41:14;9.90;;;8.87;;
10154;SDS011;5118;48.570;7.916;2023-04-28T08:43:44;10.60;;;9.50;;
10154;SDS011;5118;48.570;7.916;2023-04-28T08:46:13;9.07;;;8.17;;
10154;SDS011;5118;48.570;7.916;2023-04-28T08:48:43;8.53;;;7.57;;
10154;SDS011;5118;48.570;7.916;2023-04-28T08:51:12;8.47;;;7.67;;
10154;SDS011;5118;48.570;7.916;2023-04-28T08:53:43;8.47;;;7.70;;
10154;SDS011;5118;48.570;7.916;2023-04-28T08:56:23;7.77;;;6.93;;
10154;SDS011;5118;48.570;7.916;2023-04-28T08:59:01;7.43;;;6.77;;
10154;SDS011;5118;48.570;7.916;2023-04-28T09:01:31;7.50;;;6.80;;
10154;SDS011;5118;48.570;7.916;2023-04-28T09:03:59;7.77;;;7.07;;
10154;SDS011;5118;48.570;7.916;2023-04-28T09:06:31;7.80;;;7.10;;
10154;SDS011;5118;48.570;7.916;2023-04-28T09:09:16;7.40;;;6.80;;
10154;SDS011;5118;48.570;7.916;2023-04-28T09:11:52;7.20;;;6.60;;
10154;SDS011;5118;48.570;7.916;2023-04-28T09:14:23;6.87;;;6.27;;
10154;SDS011;5118;48.570;7.916;2023-04-28T09:16:52;7.10;;;6.40;;
10154;SDS011;5118;48.570;7.916;2023-04-28T09:19:21;6.57;;;6.00;;
10154;SDS011;5118;48.570;7.916;2023-04-28T09:21:51;7.60;;;6.60;;
10154;SDS011;5118;48.570;7.916;2023-04-28T09:24:30;6.70;;;6.10;;
10154;SDS011;5118;48.570;7.916;2023-04-28T09:27:00;7.23;;;6.53;;
10154;SDS011;5118;48.570;7.916;2023-04-28T09:29:33;6.23;;;5.70;;
10154;SDS011;5118;48.570;7.916;2023-04-28T09:34:50;6.13;;;5.53;;
10154;SDS011;5118;48.570;7.916;2023-04-28T09:37:20;7.07;;;5.70;;
10154;SDS011;5118;48.570;7.916;2023-04-28T09:39:51;6.77;;;6.07;;
10154;SDS011;5118;48.570;7.916;2023-04-28T09:42:30;6.60;;;6.00;;
10154;SDS011;5118;48.570;7.916;2023-04-28T09:45:01;6.00;;;5.40;;
10154;SDS011;5118;48.570;7.916;2023-04-28T09:47:33;6.63;;;5.70;;
10154;SDS011;5118;48.570;7.916;2023-04-28T09:50:03;5.80;;;5.13;;
10154;SDS011;5118;48.570;7.916;2023-04-28T09:52:34;5.90;;;5.30;;
10154;SDS011;5118;48.570;7.916;2023-04-28T09:55:03;5.90;;;5.00;;
10154;SDS011;5118;48.570;7.916;2023-04-28T09:57:34;5.10;;;4.70;;
10154;SDS011;5118;48.570;7.916;2023-04-28T10:00:05;5.07;;;4.60;;
10154;SDS011;5118;48.570;7.916;2023-04-28T10:02:36;5.00;;;4.50;;
10154;SDS011;5118;48.570;7.916;2023-04-28T10:05:09;4.63;;;4.23;;
10154;SDS011;5118;48.570;7.916;2023-04-28T10:07:39;4.97;;;4.57;;
10154;SDS011;5118;48.570;7.916;2023-04-28T10:10:11;5.67;;;4.50;;
10154;SDS011;5118;48.570;7.916;2023-04-28T10:12:40;5.27;;;4.70;;
10154;SDS011;5118;48.570;7.916;2023-04-28T10:15:12;4.77;;;4.37;;
10154;SDS011;5118;48.570;7.916;2023-04-28T10:17:40;6.10;;;4.83;;
10154;SDS011;5118;48.570;7.916;2023-04-28T10:20:09;4.47;;;4.13;;
10154;SDS011;5118;48.570;7.916;2023-04-28T10:22:42;4.10;;;3.80;;
10154;SDS011;5118;48.570;7.916;2023-04-28T10:25:25;4.47;;;4.07;;
10154;SDS011;5118;48.570;7.916;2023-04-28T10:27:54;4.83;;;4.20;;
10154;SDS011;5118;48.570;7.916;2023-04-28T10:30:25;4.63;;;4.17;;
10154;SDS011;5118;48.570;7.916;2023-04-28T10:35:53;5.10;;;3.93;;
10154;SDS011;5118;48.570;7.916;2023-04-28T10:38:21;4.20;;;3.80;;
10154;SDS011;5118;48.570;7.916;2023-04-28T10:40:50;4.53;;;3.97;;
10154;SDS011;5118;48.570;7.916;2023-04-28T10:43:32;4.38;;;3.95;;
10154;SDS011;5118;48.570;7.916;2023-04-28T10:46:09;3.90;;;3.60;;
10154;SDS011;5118;48.570;7.916;2023-04-28T10:48:51;4.57;;;3.77;;
10154;SDS011;5118;48.570;7.916;2023-04-28T10:51:28;3.45;;;3.15;;
10154;SDS011;5118;48.570;7.916;2023-04-28T10:54:06;4.05;;;3.65;;
10154;SDS011;5118;48.570;7.916;2023-04-28T10:57:16;4.00;;;3.40;;
10154;SDS011;5118;48.570;7.916;2023-04-28T10:59:48;4.03;;;3.42;;
10154;SDS011;5118;48.570;7.916;2023-04-28T11:02:37;3.42;;;3.13;;
10154;SDS011;5118;48.570;7.916;2023-04-28T11:05:19;4.45;;;3.40;;
10154;SDS011;5118;48.570;7.916;2023-04-28T11:13:48;3.00;;;2.80;;
10154;SDS011;5118;48.570;7.916;2023-04-28T11:16:18;3.53;;;2.80;;
10154;SDS011;5118;48.570;7.916;2023-04-28T11:18:56;2.67;;;2.47;;
10154;SDS011;5118;48.570;7.916;2023-04-28T11:21:30;2.60;;;2.40;;
10154;SDS011;5118;48.570;7.916;2023-04-28T11:24:00;2.58;;;2.38;;
10154;SDS011;5118;48.570;7.916;2023-04-28T11:26:37;3.10;;;2.60;;
10154;SDS011;5118;48.570;7.916;2023-04-28T11:29:06;3.35;;;2.70;;
10154;SDS011;5118;48.570;7.916;2023-04-28T11:31:35;2.92;;;2.63;;
10154;SDS011;5118;48.570;7.916;2023-04-28T11:34:06;4.05;;;2.90;;
10154;SDS011;5118;48.570;7.916;2023-04-28T11:36:40;3.15;;;2.85;;
10154;SDS011;5118;48.570;7.916;2023-04-28T11:39:10;3.80;;;2.88;;
10154;SDS011;5118;48.570;7.916;2023-04-28T11:41:40;4.05;;;3.35;;
10154;SDS011;5118;48.570;7.916;2023-04-28T11:44:12;3.70;;;3.40;;
10154;SDS011;5118;48.570;7.916;2023-04-28T11:46:46;3.60;;;3.30;;
10154;SDS011;5118;48.570;7.916;2023-04-28T11:52:23;5.37;;;3.50;;
10154;SDS011;5118;48.570;7.916;2023-04-28T11:54:53;4.22;;;3.88;;
10154;SDS011;5118;48.570;7.916;2023-04-28T11:57:23;3.90;;;3.60;;
10154;SDS011;5118;48.570;7.916;2023-04-28T12:00:10;3.50;;;2.90;;
10154;SDS011;5118;48.570;7.916;2023-04-28T12:02:40;4.33;;;3.87;;
10154;SDS011;5118;48.570;7.916;2023-04-28T12:05:11;5.00;;;4.50;;
10154;SDS011;5118;48.570;7.916;2023-04-28T12:07:40;5.33;;;4.83;;
10154;SDS011;5118;48.570;7.916;2023-04-28T12:10:10;4.70;;;4.30;;
10154;SDS011;5118;48.570;7.916;2023-04-28T12:12:42;5.10;;;4.60;;
10154;SDS011;5118;48.570;7.916;2023-04-28T12:15:19;5.40;;;4.90;;
10154;SDS011;5118;48.570;7.916;2023-04-28T12:17:50;5.18;;;4.68;;
10154;SDS011;5118;48.570;7.916;2023-04-28T12:20:35;5.07;;;4.40;;
10154;SDS011;5118;48.570;7.916;2023-04-28T12:23:05;4.50;;;4.10;;
10154;SDS011;5118;48.570;7.916;2023-04-28T12:25:41;5.10;;;4.70;;
10154;SDS011;5118;48.570;7.916;2023-04-28T12:28:10;5.57;;;5.07;;
10154;SDS011;5118;48.570;7.916;2023-04-28T12:30:39;5.23;;;4.77;;
10154;SDS011;5118;48.570;7.916;2023-04-28T12:33:20;5.60;;;5.00;;
10154;SDS011;5118;48.570;7.916;2023-04-28T12:35:52;5.40;;;4.90;;
10154;SDS011;5118;48.570;7.916;2023-04-28T12:38:21;6.77;;;4.90;;
10154;SDS011;5118;48.570;7.916;2023-04-28T12:40:50;5.90;;;5.30;;
10154;SDS011;5118;48.570;7.916;2023-04-28T12:43:19;5.70;;;5.20;;
10154;SDS011;5118;48.570;7.916;2023-04-28T12:45:49;7.00;;;5.40;;
10154;SDS011;5118;48.570;7.916;2023-04-28T12:48:19;5.90;;;4.80;;
10154;SDS011;5118;48.570;7.916;2023-04-28T12:50:49;5.10;;;4.60;;
10154;SDS011;5118;48.570;7.916;2023-04-28T12:53:19;5.30;;;4.57;;
10154;SDS011;5118;48.570;7.916;2023-04-28T12:55:48;4.80;;;4.40;;
10154;SDS011;5118;48.570;7.916;2023-04-28T12:58:16;5.03;;;4.53;;
10154;SDS011;5118;48.570;7.916;2023-04-28T13:00:44;5.03;;;4.63;;
10154;SDS011;5118;48.570;7.916;2023-04-28T13:03:13;5.60;;;5.10;;
10154;SDS011;5118;48.570;7.916;2023-04-28T13:05:41;6.97;;;5.43;;
10154;SDS011;5118;48.570;7.916;2023-04-28T13:08:10;5.80;;;5.20;;
10154;SDS011;5118;48.570;7.916;2023-04-28T13:10:40;5.13;;;4.63;;
10154;SDS011;5118;48.570;7.916;2023-04-28T13:13:09;5.47;;;4.97;;
10154;SDS011;5118;48.570;7.916;2023-04-28T13:15:38;5.30;;;4.90;;
10154;SDS011;5118;48.570;7.916;2023-04-28T13:18:06;5.53;;;4.73;;
10154;SDS011;5118;48.570;7.916;2023-04-28T13:20:35;5.70;;;5.20;;
10154;SDS011;5118;48.570;7.916;2023-04-28T13:23:03;5.73;;;4.70;;
10154;SDS011;5118;48.570;7.916;2023-04-28T13:25:32;5.30;;;4.80;;
10154;SDS011;5118;48.570;7.916;2023-04-28T13:28:01;4.60;;;4.20;;
10154;SDS011;5118;48.570;7.916;2023-04-28T13:30:30;4.53;;;4.13;;
10154;SDS011;5118;48.570;7.916;2023-04-28T13:33:01;5.33;;;4.40;;
10154;SDS011;5118;48.570;7.916;2023-04-28T13:35:29;4.63;;;4.20;;
10154;SDS011;5118;48.570;7.916;2023-04-28T13:37:58;4.87;;;4.20;;
10154;SDS011;5118;48.570;7.916;2023-04-28T13:40:28;4.27;;;3.87;;
10154;SDS011;5118;48.570;7.916;2023-04-28T13:42:57;4.40;;;4.00;;
10154;SDS011;5118;48.570;7.916;2023-04-28T13:45:27;4.07;;;3.63;;
10154;SDS011;5118;48.570;7.916;2023-04-28T13:47:56;4.80;;;3.75;;
10154;SDS011;5118;48.570;7.916;2023-04-28T13:50:24;3.63;;;3.35;;
10154;SDS011;5118;48.570;7.916;2023-04-28T13:52:53;4.28;;;3.60;;
10154;SDS011;5118;48.570;7.916;2023-04-28T13:55:21;4.97;;;4.03;;
10154;SDS011;5118;48.570;7.916;2023-04-28T13:57:53;3.97;;;3.67;;
10154;SDS011;5118;48.570;7.916;2023-04-28T14:00:22;4.28;;;3.97;;
10154;SDS011;5118;48.570;7.916;2023-04-28T14:02:52;3.78;;;3.47;;
10154;SDS011;5118;48.570;7.916;2023-04-28T14:05:21;4.30;;;3.90;;
10154;SDS011;5118;48.570;7.916;2023-04-28T14:07:49;3.90;;;3.60;;
10154;SDS011;5118;48.570;7.916;2023-04-28T14:10:18;3.90;;;3.58;;
10154;SDS011;5118;48.570;7.916;2023-04-28T14:12:47;3.20;;;2.90;;
10154;SDS011;5118;48.570;7.916;2023-04-28T14:15:15;2.80;;;2.60;;
10154;SDS011;5118;48.570;7.916;2023-04-28T14:17:44;2.60;;;2.40;;
10154;SDS011;5118;48.570;7.916;2023-04-28T14:20:16;4.15;;;2.20;;
10154;SDS011;5118;48.570;7.916;2023-04-28T14:22:45;2.35;;;2.20;;
10154;SDS011;5118;48.570;7.916;2023-04-28T14:25:13;2.63;;;1.80;;
10154;SDS011;5118;48.570;7.916;2023-04-28T14:27:43;1.92;;;1.80;;
10154;SDS011;5118;48.570;7.916;2023-04-28T14:30:12;1.67;;;1.58;;
10154;SDS011;5118;48.570;7.916;2023-04-28T14:32:41;1.70;;;1.60;;
10154;SDS011;5118;48.570;7.916;2023-04-28T14:35:10;2.05;;;1.60;;
10154;SDS011;5118;48.570;7.916;2023-04-28T14:37:41;1.98;;;1.80;;
10154;SDS011;5118;48.570;7.916;2023-04-28T14:40:10;2.00;;;1.80;;
10154;SDS011;5118;48.570;7.916;2023-04-28T14:42:39;2.10;;;1.90;;
10154;SDS011;5118;48.570;7.916;2023-04-28T14:45:07;3.15;;;2.10;;
10154;SDS011;5118;48.570;7.916;2023-04-28T14:47:37;2.73;;;2.10;;
10154;SDS011;5118;48.570;7.916;2023-04-28T14:50:07;2.90;;;2.00;;
10154;SDS011;5118;48.570;7.916;2023-04-28T14:52:40;2.03;;;1.93;;
10154;SDS011;5118;48.570;7.916;2023-04-28T14:55:09;2.40;;;2.20;;
10154;SDS011;5118;48.570;7.916;2023-04-28T14:57:39;3.20;;;3.00;;
10154;SDS011;5118;48.570;7.916;2023-04-28T15:00:07;2.30;;;2.10;;
10154;SDS011;5118;48.570;7.916;2023-04-28T15:02:36;2.40;;;1.97;;
10154;SDS011;5118;48.570;7.916;2023-04-28T15:05:06;2.67;;;2.10;;
10154;SDS011;5118;48.570;7.916;2023-04-28T15:07:35;2.80;;;2.60;;
10154;SDS011;5118;48.570;7.916;2023-04-28T15:10:05;2.40;;;2.20;;
10154;SDS011;5118;48.570;7.916;2023-04-28T15:12:34;2.60;;;2.40;;
10154;SDS011;5118;48.570;7.916;2023-04-28T15:15:03;3.58;;;3.22;;
10154;SDS011;5118;48.570;7.916;2023-04-28T15:17:31;3.85;;;2.70;;
10154;SDS011;5118;48.570;7.916;2023-04-28T15:20:00;5.53;;;2.95;;
10154;SDS011;5118;48.570;7.916;2023-04-28T15:22:28;3.58;;;3.22;;
10154;SDS011;5118;48.570;7.916;2023-04-28T15:24:57;3.30;;;3.10;;
10154;SDS011;5118;48.570;7.916;2023-04-28T15:27:27;3.78;;;3.38;;
10154;SDS011;5118;48.570;7.916;2023-04-28T15:29:56;4.13;;;3.80;;
10154;SDS011;5118;48.570;7.916;2023-04-28T15:32:24;5.53;;;4.50;;